createdAt,value
2022-12-14T00:00:23.039Z,2.00
2022-12-14T00:05:29.764Z,2.00
2022-12-14T00:10:33.492Z,2.00
2022-12-14T00:15:37.480Z,2.00
2022-12-14T00:20:39.725Z,2.00
2022-12-14T00:25:42.634Z,2.00
2022-12-14T00:30:45.473Z,2.00
2022-12-14T00:35:47.697Z,1.90
2022-12-14T00:40:50.199Z,1.90
2022-12-14T00:45:54.133Z,2.00
2022-12-14T00:50:57.894Z,1.90
2022-12-14T00:56:06.521Z,1.90
2022-12-14T01:01:15.712Z,1.90
2022-12-14T01:06:21.723Z,1.90
2022-12-14T01:11:23.923Z,1.80
2022-12-14T01:16:27.910Z,1.80
2022-12-14T01:21:30.754Z,1.70
2022-12-14T01:26:42.807Z,1.70
2022-12-14T01:31:48.589Z,1.60
2022-12-14T01:36:51.491Z,1.60
2022-12-14T01:41:54.963Z,1.60
2022-12-14T01:47:12.466Z,1.50
2022-12-14T01:52:18.088Z,1.50
2022-12-14T01:57:26.236Z,1.50
2022-12-14T02:02:29.758Z,1.50
2022-12-14T02:07:33.378Z,1.50
2022-12-14T02:12:47.265Z,1.50
2022-12-14T02:17:49.542Z,1.50
2022-12-14T02:23:22.712Z,1.50
2022-12-14T02:28:46.443Z,1.40
2022-12-14T02:34:04.180Z,1.50
2022-12-14T02:39:33.457Z,1.50
2022-12-14T02:44:44.781Z,1.50
2022-12-14T02:50:27.066Z,1.50
2022-12-14T02:55:45.520Z,1.50
2022-12-14T03:00:50.211Z,1.50
2022-12-14T03:05:56.444Z,1.50
2022-12-14T03:11:06.372Z,1.60
2022-12-14T03:16:41.113Z,1.60
2022-12-14T03:21:50.825Z,1.60
2022-12-14T03:27:05.285Z,1.70
2022-12-14T03:32:12.904Z,1.70
2022-12-14T03:37:34.566Z,1.70
2022-12-14T03:42:58.366Z,1.80
2022-12-14T03:48:14.052Z,1.80
2022-12-14T03:53:38.841Z,1.90
2022-12-14T03:59:14.810Z,1.90
2022-12-14T04:04:39.894Z,1.90
2022-12-14T04:10:25.816Z,2.00
2022-12-14T04:15:55.647Z,2.00
2022-12-14T04:21:07.643Z,2.00
2022-12-14T04:26:15.159Z,2.10
2022-12-14T04:31:26.135Z,2.10
2022-12-14T04:36:42.229Z,2.20
2022-12-14T04:41:50.079Z,2.20
2022-12-14T04:47:00.701Z,2.20
2022-12-14T04:52:13.680Z,2.30
2022-12-14T04:57:27.447Z,2.30
2022-12-14T05:03:02.303Z,2.40
2022-12-14T05:08:32.097Z,2.40
2022-12-14T05:14:00.302Z,2.40
2022-12-14T05:19:12.633Z,2.50
2022-12-14T05:24:19.334Z,2.50
2022-12-14T05:34:52.897Z,2.60
2022-12-14T05:39:59.346Z,2.60
2022-12-14T05:50:28.999Z,2.70
2022-12-14T05:55:37.864Z,2.70
2022-12-14T06:00:47.789Z,2.70
2022-12-14T06:05:52.263Z,2.80
2022-12-14T06:11:08.355Z,2.80
2022-12-14T06:16:28.441Z,2.80
2022-12-14T06:21:58.911Z,2.80
2022-12-14T06:32:56.760Z,2.80
2022-12-14T06:38:01.608Z,2.90
2022-12-14T06:43:05.121Z,2.90
2022-12-14T06:48:11.864Z,3.00
2022-12-14T06:53:15.648Z,3.00
2022-12-14T06:58:22.550Z,3.00
2022-12-14T07:03:28.581Z,3.10
2022-12-14T07:08:34.127Z,3.10
2022-12-14T07:13:43.557Z,3.10
2022-12-14T07:18:50.617Z,3.10
2022-12-14T07:30:09.914Z,3.20
2022-12-14T07:35:16.883Z,3.10
2022-12-14T07:40:23.045Z,3.10
2022-12-14T07:50:53.399Z,3.20
2022-12-14T07:56:02.706Z,3.10
2022-12-14T08:01:22.832Z,3.10
2022-12-14T08:06:32.876Z,3.10
2022-12-14T08:12:06.927Z,3.10
2022-12-14T08:17:24.887Z,3.10
2022-12-14T08:22:35.255Z,3.10
2022-12-14T08:28:01.342Z,3.20
2022-12-14T08:33:13.437Z,3.20
2022-12-14T08:38:18.588Z,3.20
2022-12-14T08:43:25.020Z,3.20
2022-12-14T08:48:28.698Z,3.30
2022-12-14T08:53:31.362Z,3.30
2022-12-14T08:58:40.002Z,3.30
2022-12-14T09:03:45.022Z,3.30
2022-12-14T09:08:49.997Z,3.20
2022-12-14T09:13:55.914Z,3.20
2022-12-14T09:18:58.418Z,3.20
2022-12-14T09:24:01.787Z,3.20
2022-12-14T09:29:06.898Z,3.20
2022-12-14T09:34:12.877Z,3.20
2022-12-14T09:39:16.236Z,3.20
2022-12-14T09:44:37.383Z,3.20
2022-12-14T09:50:02.780Z,3.30
2022-12-14T09:55:18.724Z,3.30
2022-12-14T10:00:21.311Z,3.20
2022-12-14T10:05:49.079Z,3.30
2022-12-14T10:11:18.878Z,3.40
2022-12-14T10:16:24.736Z,3.40
2022-12-14T10:21:32.130Z,3.50
2022-12-14T10:26:44.580Z,3.50
2022-12-14T10:31:52.249Z,3.50
2022-12-14T10:37:10.149Z,3.50
2022-12-14T10:42:23.542Z,3.50
2022-12-14T10:47:43.939Z,3.50
2022-12-14T10:52:51.518Z,3.50
2022-12-14T10:57:53.755Z,3.50
2022-12-14T11:02:59.647Z,3.60
2022-12-14T11:08:03.116Z,3.50
2022-12-14T11:13:26.972Z,3.60
2022-12-14T11:18:31.970Z,3.60
2022-12-14T11:23:39.452Z,3.70
2022-12-14T11:28:57.491Z,3.70
2022-12-14T11:34:03.253Z,3.70
2022-12-14T11:39:26.460Z,3.80
2022-12-14T11:44:33.266Z,3.80
2022-12-14T11:49:45.866Z,3.80
2022-12-14T11:55:27.308Z,3.80
2022-12-14T12:00:47.432Z,3.70
2022-12-14T12:06:02.392Z,3.60
2022-12-14T12:11:45.320Z,3.60
2022-12-14T12:16:53.955Z,3.60
2022-12-14T12:22:03.394Z,3.60
2022-12-14T12:27:13.847Z,3.50
2022-12-14T12:32:25.370Z,3.50
2022-12-14T12:37:42.181Z,3.50
2022-12-14T12:43:02.499Z,3.50
2022-12-14T12:48:28.255Z,3.50
2022-12-14T12:54:00.606Z,3.50
2022-12-14T12:59:04.959Z,3.60
2022-12-14T13:04:12.901Z,3.50
2022-12-14T13:09:28.857Z,3.50
2022-12-14T13:14:50.050Z,3.60
2022-12-14T13:19:59.180Z,3.50
2022-12-14T13:25:12.243Z,3.60
2022-12-14T13:30:20.868Z,3.60
2022-12-14T13:35:50.084Z,3.60
2022-12-14T13:41:29.955Z,3.60
2022-12-14T13:46:32.648Z,3.70
2022-12-14T13:51:43.498Z,3.60
2022-12-14T13:57:04.346Z,3.50
2022-12-14T14:02:34.566Z,3.50
2022-12-14T14:07:49.354Z,3.40
2022-12-14T14:12:52.680Z,3.50
2022-12-14T14:18:05.858Z,3.50
2022-12-14T14:23:24.067Z,3.50
2022-12-14T14:28:33.330Z,3.40
2022-12-14T14:33:47.232Z,3.50
2022-12-14T14:38:55.003Z,3.50
2022-12-14T14:44:03.308Z,3.50
2022-12-14T14:49:21.084Z,3.50
2022-12-14T14:55:06.596Z,3.50
2022-12-14T14:59:57.583Z,3.50
2022-12-14T15:10:36.076Z,3.50
2022-12-14T15:15:45.458Z,3.50
2022-12-14T15:21:05.620Z,3.50
2022-12-14T15:26:27.383Z,3.50
2022-12-14T15:31:33.348Z,3.50
2022-12-14T15:36:42.241Z,3.50
2022-12-14T15:41:44.926Z,3.50
2022-12-14T15:46:54.802Z,3.50
2022-12-14T15:52:10.115Z,3.50
2022-12-14T15:57:22.111Z,3.50
2022-12-14T16:02:38.274Z,3.40
2022-12-14T16:07:49.526Z,3.50
2022-12-14T16:12:58.355Z,3.50
2022-12-14T16:18:03.040Z,3.40
2022-12-14T16:23:15.605Z,3.40
2022-12-14T16:28:42.612Z,3.40
2022-12-14T16:34:05.538Z,3.40
2022-12-14T16:39:23.453Z,3.40
2022-12-14T16:44:45.359Z,3.40
2022-12-14T16:56:45.361Z,3.30
2022-12-14T17:01:51.339Z,3.30
2022-12-14T17:12:31.677Z,3.30
2022-12-14T17:17:38.573Z,3.30
2022-12-14T17:23:12.811Z,3.30
2022-12-14T17:28:45.379Z,3.30
2022-12-14T17:33:58.136Z,3.30
2022-12-14T17:56:09.520Z,3.10
2022-12-14T18:31:09.479Z,2.60
2022-12-14T18:53:30.407Z,2.30
2022-12-14T19:52:23.613Z,2.10
2022-12-14T19:57:28.273Z,2.00
2022-12-14T21:13:43.434Z,1.90
2022-12-14T21:33:21.273Z,2.10
2022-12-14T21:39:12.523Z,2.20
